Time;durP1;ratioP1;P1;durP2;ratioP2;P2;SDS_P1;SDS_P2;PMS_P1;PMS_P2;Temp;Humidity;BMP_temperature;BMP_pressure;BME280_temperature;BME280_humidity;BME280_pressure;Samples;Min_cycle;Max_cycle;Signal;HPM_P1;HPM_P2
2021/04/29 00:01:21;;;;;;;16.57;12.78;;;;;;;3.84;78.57;96246.83;1685258;84;21595;-54
2021/04/29 00:03:49;;;;;;;17.87;13.72;;;;;;;3.87;78.43;96242.02;1685110;84;21587;-55
2021/04/29 00:06:16;;;;;;;15.53;12.85;;;;;;;3.83;78.25;96243.91;1694536;82;21523;-54
2021/04/29 00:08:44;;;;;;;17.90;14.03;;;;;;;3.74;78.35;96237.11;1685147;84;21599;-54
2021/04/29 00:11:11;;;;;;;19.10;14.40;;;;;;;3.66;78.91;96231.06;1687925;84;21144;-54
2021/04/29 00:13:41;;;;;;;27.50;15.72;;;;;;;3.66;79.08;96231.88;1697326;82;21595;-54
2021/04/29 00:16:08;;;;;;;18.65;15.45;;;;;;;3.74;78.89;96235.83;1676053;84;21253;-53
2021/04/29 00:18:36;;;;;;;19.92;15.08;;;;;;;3.82;78.91;96231.97;1690956;84;21526;-54
2021/04/29 00:21:05;;;;;;;19.57;15.10;;;;;;;3.97;78.67;96243.67;1695773;83;21110;-54
2021/04/29 00:23:32;;;;;;;19.42;14.18;;;;;;;4.08;78.37;96237.98;1687126;84;21155;-54
2021/04/29 00:25:59;;;;;;;21.80;14.75;;;;;;;4.16;77.98;96238.00;1680414;84;21741;-53
2021/04/29 00:28:27;;;;;;;17.80;13.83;;;;;;;4.26;77.76;96243.50;1693280;84;21204;-54
2021/04/29 00:30:55;;;;;;;22.37;15.45;;;;;;;4.31;77.48;96240.24;1688966;84;21238;-54
2021/04/29 00:33:23;;;;;;;19.35;16.17;;;;;;;4.31;77.20;96239.39;1651594;85;21185;-55
2021/04/29 00:35:50;;;;;;;20.48;15.18;;;;;;;4.29;77.36;96239.93;1688169;84;21171;-54
2021/04/29 00:38:18;;;;;;;21.77;15.15;;;;;;;4.30;76.99;96238.57;1658729;85;21163;-53
2021/04/29 00:40:46;;;;;;;20.62;14.93;;;;;;;4.29;76.91;96242.50;1696324;84;22299;-53
2021/04/29 00:43:13;;;;;;;26.57;15.63;;;;;;;4.26;76.99;96233.23;1691758;84;22594;-54
2021/04/29 00:45:41;;;;;;;21.42;15.78;;;;;;;4.30;77.21;96233.89;1694258;83;21143;-53
2021/04/29 00:48:09;;;;;;;20.57;15.75;;;;;;;4.35;76.79;96237.88;1689089;84;21186;-54
2021/04/29 00:50:39;;;;;;;20.85;14.68;;;;;;;4.23;76.79;96232.92;1692069;83;21071;-54
2021/04/29 00:53:07;;;;;;;20.00;15.20;;;;;;;4.15;77.09;96233.77;1690242;84;21492;-54
2021/04/29 00:55:34;;;;;;;19.40;14.83;;;;;;;4.16;77.08;96238.43;1690349;83;21152;-53
2021/04/29 00:58:02;;;;;;;20.55;16.75;;;;;;;4.15;76.90;96230.38;1648534;85;21146;-53
2021/04/29 01:00:30;;;;;;;25.03;17.23;;;;;;;4.07;77.10;96233.31;1696691;83;21199;-53
2021/04/29 01:03:21;;;;;;;20.32;16.40;;;;;;;3.92;77.34;96231.53;1683500;84;21240;-55
2021/04/29 01:05:52;;;;;;;20.32;14.23;;;;;;;3.81;77.79;96226.91;1678295;84;21976;-53
2021/04/29 01:08:46;;;;;;;18.85;14.23;;;;;;;3.81;77.79;96226.91;1667917;84;21243;-53
2021/04/29 01:11:17;;;;;;;19.85;14.60;;;;;;;3.80;77.63;96223.95;1657751;85;21582;-53
2021/04/29 01:13:50;;;;;;;24.75;17.75;;;;;;;3.74;77.95;96222.54;1662281;85;21175;-54
2021/04/29 01:16:18;;;;;;;25.25;17.27;;;;;;;3.65;77.96;96220.41;1669913;84;21084;-53
2021/04/29 01:18:46;;;;;;;24.83;16.30;;;;;;;3.59;78.33;96228.43;1625886;85;21182;-53
2021/04/29 01:21:16;;;;;;;21.23;16.00;;;;;;;3.60;78.38;96223.22;1641405;85;21984;-53
2021/04/29 01:24:14;;;;;;;26.07;16.05;;;;;;;3.60;78.43;96223.66;1646274;85;21092;-54
2021/04/29 01:26:57;;;;;;;27.90;17.23;;;;;;;3.55;78.68;96214.08;1642986;85;21238;-54
2021/04/29 01:29:29;;;;;;;38.78;18.40;;;;;;;3.43;79.00;96223.20;1656390;84;21089;-53
2021/04/29 01:31:57;;;;;;;26.17;16.27;;;;;;;3.36;79.31;96229.08;1648370;85;21392;-53
2021/04/29 01:34:30;;;;;;;22.32;15.30;;;;;;;3.37;79.54;96219.20;1661245;84;21116;-53
2021/04/29 01:36:57;;;;;;;24.67;17.65;;;;;;;3.44;79.36;96226.16;1655021;86;21076;-54
2021/04/29 01:39:26;;;;;;;33.95;16.90;;;;;;;3.41;79.34;96216.03;1669462;84;21076;-53
2021/04/29 01:41:54;;;;;;;27.58;18.02;;;;;;;3.46;79.60;96220.48;1634934;86;21604;-54
2021/04/29 01:44:23;;;;;;;25.53;16.33;;;;;;;3.52;79.25;96214.22;1666036;84;21220;-53
2021/04/29 01:46:54;;;;;;;27.70;15.25;;;;;;;3.58;79.28;96224.19;1636816;85;21630;-53
2021/04/29 01:49:21;;;;;;;24.50;16.80;;;;;;;3.71;78.98;96216.73;1627515;85;21197;-54
2021/04/29 01:51:49;;;;;;;19.00;14.20;;;;;;;3.82;78.71;96224.27;1645514;85;21612;-54
2021/04/29 01:54:17;;;;;;;25.02;16.60;;;;;;;3.99;78.36;96233.69;1605118;85;21100;-54
2021/04/29 01:56:45;;;;;;;;;;;;;;;4.10;77.88;96215.19;1657216;85;21235;-53
2021/04/29 01:59:16;;;;;;;26.95;16.62;;;;;;;4.08;77.39;96220.87;1646269;85;20243;-53
2021/04/29 02:01:44;;;;;;;19.00;15.28;;;;;;;4.04;77.49;96215.50;1665848;84;21159;-54
2021/04/29 02:04:13;;;;;;;20.62;15.23;;;;;;;4.09;77.41;96212.70;1651649;85;26756;-54
2021/04/29 02:06:45;;;;;;;17.10;14.20;;;;;;;4.13;77.19;96199.64;1655804;84;21140;-54
2021/04/29 02:09:13;;;;;;;;;;;;;;;4.16;77.13;96200.77;1666628;84;21180;-54
2021/04/29 02:11:48;;;;;;;21.40;15.90;;;;;;;4.15;77.15;96200.84;1661407;84;20695;-53
2021/04/29 02:14:20;;;;;;;24.50;15.05;;;;;;;4.17;77.35;96201.12;1647242;85;21170;-54
2021/04/29 02:16:48;;;;;;;20.90;14.28;;;;;;;4.30;76.92;96190.23;1653395;85;21100;-53
2021/04/29 02:19:17;;;;;;;23.95;14.40;;;;;;;4.33;76.91;96196.03;1667129;85;21158;-53
2021/04/29 02:21:46;;;;;;;18.67;14.78;;;;;;;4.37;76.68;96192.38;1665458;85;22128;-54
2021/04/29 02:24:15;;;;;;;17.25;14.85;;;;;;;4.47;76.76;96197.05;1640708;85;21194;-54
2021/04/29 02:26:42;;;;;;;19.17;14.80;;;;;;;4.54;76.37;96194.52;1668956;85;21589;-56
2021/04/29 02:29:10;;;;;;;24.92;16.35;;;;;;;4.54;76.16;96190.67;1692122;84;21199;-53
2021/04/29 02:31:38;;;;;;;18.35;14.58;;;;;;;4.46;76.27;96190.24;1694788;84;21072;-53
2021/04/29 02:34:05;;;;;;;19.35;15.23;;;;;;;4.46;76.35;96185.11;1686594;84;22297;-54
2021/04/29 02:36:33;;;;;;;16.40;13.65;;;;;;;4.42;76.24;96179.30;1687724;83;21187;-54
2021/04/29 02:39:01;;;;;;;18.80;15.00;;;;;;;4.32;76.52;96180.70;1677464;84;21162;-53
2021/04/29 02:41:29;;;;;;;20.32;16.15;;;;;;;4.23;76.83;96183.30;1683446;85;21784;-54
2021/04/29 02:43:59;;;;;;;19.35;15.43;;;;;;;4.15;77.19;96184.16;1692505;83;21601;-53
2021/04/29 02:46:27;;;;;;;28.57;16.20;;;;;;;4.07;77.44;96190.95;1673351;84;21239;-54
2021/04/29 02:48:57;;;;;;;23.12;15.90;;;;;;;4.04;77.81;96188.08;1694831;84;21107;-53
2021/04/29 02:51:25;;;;;;;16.20;13.77;;;;;;;4.11;77.78;96183.48;1680308;84;21562;-53
2021/04/29 02:53:53;;;;;;;17.80;14.20;;;;;;;4.24;77.74;96182.37;1676637;84;21876;-54
2021/04/29 02:56:21;;;;;;;23.30;17.00;;;;;;;4.30;77.35;96181.25;1689082;83;21124;-54
2021/04/29 02:58:50;;;;;;;23.45;16.87;;;;;;;4.28;77.33;96175.37;1681050;84;21138;-53
2021/04/29 03:01:19;;;;;;;20.50;15.80;;;;;;;4.33;77.31;96171.63;1686362;84;21532;-54
2021/04/29 03:03:49;;;;;;;18.25;14.90;;;;;;;4.45;77.08;96168.87;1679466;84;21205;-54
2021/04/29 03:06:16;;;;;;;;;;;;;;;4.56;76.56;96168.31;1673704;84;21210;-54
2021/04/29 03:08:44;;;;;;;17.15;14.38;;;;;;;4.56;76.38;96170.42;1694098;83;20213;-54
2021/04/29 03:11:12;;;;;;;20.02;15.13;;;;;;;4.54;76.47;96172.25;1691078;83;21403;-53
2021/04/29 03:13:40;;;;;;;25.67;15.67;;;;;;;4.58;76.51;96171.62;1682606;84;21191;-54
2021/04/29 03:16:07;;;;;;;36.28;25.60;;;;;;;4.62;76.26;96170.53;1680068;84;21192;-53
2021/04/29 03:18:35;;;;;;;21.57;17.27;;;;;;;4.66;76.31;96175.90;1674998;84;21100;-52
2021/04/29 03:21:05;;;;;;;81.10;34.20;;;;;;;4.74;76.17;96180.17;1669037;85;21151;-54
2021/04/29 03:23:32;;;;;;;38.42;20.30;;;;;;;4.79;76.04;96174.33;1688003;84;21213;-54
2021/04/29 03:26:00;;;;;;;22.25;14.53;;;;;;;4.83;75.71;96178.02;1676228;84;21186;-53
2021/04/29 03:28:27;;;;;;;20.77;14.85;;;;;;;4.76;75.76;96174.95;1677227;84;21070;-53
2021/04/29 03:30:56;;;;;;;19.17;14.65;;;;;;;4.64;76.15;96174.31;1676247;84;21081;-53
2021/04/29 03:33:24;;;;;;;;;;;;;;;4.52;76.64;96175.80;1682140;84;21182;-53
2021/04/29 03:35:52;;;;;;;21.12;15.53;;;;;;;4.55;76.88;96180.31;1662674;85;21378;-52
2021/04/29 03:38:19;;;;;;;18.92;14.73;;;;;;;4.58;77.09;96189.14;1674579;84;21586;-54
2021/04/29 03:40:47;;;;;;;20.17;14.55;;;;;;;4.67;77.02;96175.44;1677943;84;21597;-54
2021/04/29 03:43:16;;;;;;;20.37;16.35;;;;;;;4.70;76.97;96182.98;1675521;84;21545;-56
2021/04/29 03:45:43;;;;;;;19.75;15.40;;;;;;;4.69;77.04;96176.20;1686615;84;21225;-54
2021/04/29 03:48:12;;;;;;;18.92;14.70;;;;;;;4.70;76.89;96167.56;1678946;84;21220;-53
2021/04/29 03:50:40;;;;;;;19.87;15.18;;;;;;;4.61;77.18;96168.89;1644620;86;21204;-53
2021/04/29 03:53:07;;;;;;;20.20;16.02;;;;;;;4.57;77.36;96172.09;1672990;84;21095;-53
2021/04/29 03:55:35;;;;;;;18.87;15.20;;;;;;;4.63;77.44;96170.92;1679264;84;21245;-53
2021/04/29 03:58:05;;;;;;;19.87;14.83;;;;;;;4.78;77.22;96167.98;1672927;84;21168;-55
2021/04/29 04:00:33;;;;;;;19.25;15.40;;;;;;;4.87;76.84;96170.06;1684166;83;21616;-55
2021/04/29 04:03:01;;;;;;;19.17;15.60;;;;;;;4.93;76.70;96171.45;1656332;85;21208;-52
2021/04/29 04:05:28;;;;;;;18.62;14.33;;;;;;;5.00;76.54;96171.95;1654484;85;21097;-53
2021/04/29 04:07:56;;;;;;;19.63;15.90;;;;;;;5.08;76.56;96179.63;1667995;85;21080;-52
2021/04/29 04:10:24;;;;;;;26.83;17.30;;;;;;;5.22;76.10;96165.17;1661946;85;21136;-53
2021/04/29 04:12:53;;;;;;;24.32;16.12;;;;;;;5.33;75.89;96171.37;1656595;85;21291;-52
2021/04/29 04:15:20;;;;;;;19.98;15.55;;;;;;;5.27;75.55;96176.03;1667899;85;21170;-54
2021/04/29 04:17:48;;;;;;;28.80;16.35;;;;;;;5.13;75.94;96185.78;1659295;85;21218;-53
2021/04/29 04:20:18;;;;;;;32.13;16.00;;;;;;;4.90;76.47;96187.89;1648690;85;21092;-52
2021/04/29 04:22:45;;;;;;;30.43;18.20;;;;;;;4.77;77.30;96190.30;1687983;84;21081;-53
2021/04/29 04:25:14;;;;;;;33.25;17.35;;;;;;;4.74;77.40;96191.73;1688403;83;22368;-53
2021/04/29 04:27:43;;;;;;;30.20;16.55;;;;;;;4.80;77.62;96198.28;1690633;83;21658;-53
2021/04/29 04:30:12;;;;;;;25.90;14.28;;;;;;;4.90;77.35;96194.32;1690096;83;21199;-53
2021/04/29 04:32:40;;;;;;;23.67;16.52;;;;;;;4.94;77.19;96193.69;1696923;83;21536;-53
2021/04/29 04:35:09;;;;;;;24.00;17.05;;;;;;;4.97;76.90;96198.20;1672149;85;21513;-53
2021/04/29 04:37:37;;;;;;;22.22;15.40;;;;;;;4.92;76.59;96188.63;1700525;83;21112;-53
2021/04/29 04:40:06;;;;;;;39.70;16.50;;;;;;;4.90;76.72;96186.61;1672587;85;21200;-53
2021/04/29 04:42:34;;;;;;;20.77;15.98;;;;;;;4.97;76.81;96188.39;1691844;84;22449;-53
2021/04/29 04:45:06;;;;;;;22.42;16.17;;;;;;;5.01;76.87;96184.72;1645902;85;21216;-53
2021/04/29 04:47:33;;;;;;;25.32;15.75;;;;;;;5.14;76.76;96183.59;1685857;84;21143;-53
2021/04/29 04:50:01;;;;;;;20.82;16.12;;;;;;;5.55;76.54;96178.34;1673348;85;21222;-52
2021/04/29 04:52:29;;;;;;;18.35;14.58;;;;;;;6.06;74.61;96184.80;1679623;84;21213;-53
2021/04/29 04:54:57;;;;;;;22.60;16.90;;;;;;;6.31;73.39;96175.61;1675076;84;21204;-53
2021/04/29 04:57:25;;;;;;;23.60;17.57;;;;;;;6.38;71.97;96179.49;1681392;84;21103;-53
2021/04/29 04:59:54;;;;;;;21.93;16.73;;;;;;;6.14;72.41;96186.93;1699926;83;21138;-53
2021/04/29 05:02:21;;;;;;;51.90;18.32;;;;;;;6.09;73.62;96191.53;1690872;83;21386;-52
2021/04/29 05:04:49;;;;;;;29.63;17.55;;;;;;;6.10;72.78;96175.61;1676789;84;21500;-53
2021/04/29 05:07:19;;;;;;;23.42;16.95;;;;;;;6.04;73.50;96179.38;1645612;85;21132;-53
2021/04/29 05:09:46;;;;;;;22.52;17.62;;;;;;;6.20;72.88;96180.57;1683907;84;22559;-53
2021/04/29 05:12:14;;;;;;;23.87;17.75;;;;;;;6.23;72.58;96184.26;1688219;84;21132;-52
2021/04/29 05:14:41;;;;;;;26.07;17.37;;;;;;;6.15;72.42;96186.46;1680853;84;21253;-54
2021/04/29 05:17:09;;;;;;;23.35;18.17;;;;;;;5.93;73.14;96183.83;1699084;83;21116;-53
2021/04/29 05:19:38;;;;;;;22.93;18.02;;;;;;;5.76;73.94;96185.29;1705734;83;21152;-54
2021/04/29 05:22:06;;;;;;;20.00;16.85;;;;;;;5.64;74.31;96188.94;1699565;84;21172;-54
2021/04/29 05:24:34;;;;;;;32.20;19.02;;;;;;;5.64;74.67;96190.66;1677244;84;21167;-53
2021/04/29 05:27:02;;;;;;;23.20;17.82;;;;;;;5.65;75.12;96188.00;1701498;83;21223;-54
2021/04/29 05:29:30;;;;;;;23.92;17.37;;;;;;;5.70;75.01;96194.17;1704295;83;21210;-54
2021/04/29 05:31:58;;;;;;;23.35;18.50;;;;;;;5.68;74.98;96190.87;1701586;83;21518;-54
2021/04/29 05:34:25;;;;;;;22.82;17.87;;;;;;;5.66;75.35;96201.25;1700383;83;21228;-53
2021/04/29 05:36:53;;;;;;;25.12;18.30;;;;;;;5.80;74.74;96195.30;1673361;84;21568;-54
2021/04/29 05:39:21;;;;;;;30.40;19.12;;;;;;;5.73;74.90;96201.73;1701734;82;21223;-54
2021/04/29 05:41:49;;;;;;;26.02;18.42;;;;;;;5.73;75.13;96201.73;1680451;84;21588;-54
2021/04/29 05:44:16;;;;;;;33.33;19.23;;;;;;;5.92;75.05;96201.95;1684047;84;21076;-54
2021/04/29 05:46:44;;;;;;;23.12;18.42;;;;;;;5.93;74.42;96200.57;1676796;84;21152;-54
2021/04/29 05:49:11;;;;;;;28.00;18.40;;;;;;;5.81;74.79;96207.27;1691112;84;21186;-54
2021/04/29 05:51:40;;;;;;;26.68;18.00;;;;;;;5.75;75.12;96208.08;1706023;82;21230;-54
2021/04/29 05:54:08;;;;;;;23.62;18.15;;;;;;;5.83;75.07;96211.04;1684082;84;21076;-54
2021/04/29 05:56:37;;;;;;;21.55;17.02;;;;;;;5.74;75.10;96208.98;1687469;84;21127;-53
2021/04/29 05:59:04;;;;;;;25.32;17.32;;;;;;;5.73;75.48;96212.49;1704101;82;21602;-54
2021/04/29 06:01:32;;;;;;;23.35;15.75;;;;;;;5.73;75.58;96222.32;1704531;82;21123;-53
2021/04/29 06:04:03;;;;;;;22.37;15.45;;;;;;;5.73;75.54;96217.64;1676497;84;21444;-53
2021/04/29 06:06:32;;;;;;;22.45;15.38;;;;;;;5.74;75.71;96216.27;1701866;84;21166;-54
2021/04/29 06:09:01;;;;;;;22.90;16.85;;;;;;;5.74;75.50;96225.28;1681004;84;21133;-53
2021/04/29 06:11:29;;;;;;;20.25;15.35;;;;;;;5.67;75.58;96218.80;1679113;84;21093;-54
2021/04/29 06:13:56;;;;;;;23.00;16.55;;;;;;;5.58;75.92;96220.63;1699940;84;21084;-53
2021/04/29 06:16:24;;;;;;;22.87;16.60;;;;;;;5.56;76.21;96219.86;1681535;84;21981;-53
2021/04/29 06:18:53;;;;;;;21.00;15.93;;;;;;;5.60;76.17;96230.38;1702451;82;21143;-54
2021/04/29 06:21:21;;;;;;;23.87;16.45;;;;;;;5.64;76.08;96227.98;1700466;83;21157;-54
2021/04/29 06:23:49;;;;;;;23.32;16.35;;;;;;;5.64;76.27;96231.41;1672193;84;21123;-53
2021/04/29 06:26:17;;;;;;;22.02;16.02;;;;;;;5.67;75.88;96232.96;1687624;84;21207;-54
2021/04/29 06:28:45;;;;;;;22.20;16.32;;;;;;;5.60;75.97;96232.95;1703167;82;21216;-53
2021/04/29 06:31:13;;;;;;;41.05;18.57;;;;;;;5.57;76.04;96227.50;1682636;84;21123;-53
2021/04/29 06:33:40;;;;;;;20.35;15.13;;;;;;;5.58;76.14;96218.05;1700422;83;21607;-53
2021/04/29 06:36:08;;;;;;;25.00;15.30;;;;;;;5.65;76.24;96216.78;1683444;84;21155;-54
2021/04/29 06:38:36;;;;;;;18.00;14.68;;;;;;;5.70;76.27;96219.45;1673422;84;21083;-53
2021/04/29 06:41:04;;;;;;;19.70;15.53;;;;;;;5.80;75.96;96221.52;1682650;84;21400;-53
2021/04/29 06:43:32;;;;;;;22.60;16.50;;;;;;;5.79;75.94;96221.98;1701468;84;21135;-54
2021/04/29 06:46:00;;;;;;;23.20;16.33;;;;;;;5.80;75.87;96218.94;1672559;84;21190;-53
2021/04/29 06:48:28;;;;;;;22.50;16.02;;;;;;;5.70;76.02;96227.17;1691111;84;21084;-53
2021/04/29 06:50:56;;;;;;;24.30;17.25;;;;;;;5.63;76.54;96216.87;1684130;84;21087;-53
2021/04/29 06:53:23;;;;;;;22.87;16.05;;;;;;;5.73;76.90;96213.78;1702521;82;22654;-53
2021/04/29 06:55:51;;;;;;;23.73;16.77;;;;;;;5.88;76.50;96217.56;1675595;84;21174;-53
2021/04/29 06:58:19;;;;;;;21.05;15.93;;;;;;;5.89;75.65;96217.95;1690539;84;21139;-53
2021/04/29 07:00:46;;;;;;;17.87;14.30;;;;;;;5.84;75.82;96215.28;1701893;82;21084;-53
2021/04/29 07:03:14;;;;;;;20.95;15.25;;;;;;;5.79;76.07;96214.69;1684773;84;21157;-54
2021/04/29 07:05:45;;;;;;;21.50;17.62;;;;;;;5.80;76.04;96228.77;1692023;83;21449;-54
2021/04/29 07:08:14;;;;;;;31.30;18.23;;;;;;;5.83;76.21;96231.64;1688169;84;21596;-54
2021/04/29 07:10:44;;;;;;;30.97;16.32;;;;;;;5.98;75.82;96234.64;1682670;84;21159;-54
2021/04/29 07:13:12;;;;;;;22.42;16.48;;;;;;;6.04;75.41;96233.47;1682594;84;21144;-53
2021/04/29 07:15:40;;;;;;;17.53;14.63;;;;;;;6.15;75.13;96231.10;1684618;84;21171;-53
2021/04/29 07:20:58;;;;;;;22.70;16.50;;;;;;;6.27;74.51;96226.97;1754092;78;25526;-53
2021/04/29 07:23:33;;;;;;;21.27;15.73;;;;;;;6.25;74.35;96234.78;1712854;83;21052;-53
2021/04/29 07:26:25;;;;;;;18.20;14.45;;;;;;;6.23;74.32;96227.62;1700593;83;21398;-53
2021/04/29 07:28:53;;;;;;;23.75;15.40;;;;;;;6.24;74.43;96233.59;1715471;81;21029;-54
2021/04/29 07:31:21;;;;;;;24.18;16.42;;;;;;;6.31;74.42;96236.16;1704558;83;21129;-53
2021/04/29 07:33:50;;;;;;;;;;;;;;;6.42;74.61;96241.52;1715954;81;21127;-53
2021/04/29 07:36:17;;;;;;;23.75;16.02;;;;;;;6.65;74.15;96241.89;1695392;82;20234;-53
2021/04/29 07:38:45;;;;;;;24.25;16.85;;;;;;;6.76;73.47;96242.52;1720544;80;22146;-54
2021/04/29 07:41:13;;;;;;;21.70;15.03;;;;;;;6.74;72.85;96238.77;1746740;80;21085;-54
2021/04/29 07:43:41;;;;;;;19.23;14.78;;;;;;;6.67;73.06;96237.46;1741854;80;21130;-54
2021/04/29 07:46:08;;;;;;;20.23;16.10;;;;;;;6.65;73.27;96238.49;1725906;80;21636;-54
2021/04/29 07:48:36;;;;;;;22.60;15.90;;;;;;;6.72;73.11;96242.34;1754933;80;21061;-53
2021/04/29 07:51:04;;;;;;;20.55;15.38;;;;;;;6.72;73.11;96242.34;1712042;82;21415;-53
2021/04/29 07:53:32;;;;;;;23.50;14.85;;;;;;;6.78;73.29;96244.09;1685123;84;21816;-54
2021/04/29 07:56:01;;;;;;;16.77;13.72;;;;;;;6.81;72.98;96250.83;1701620;82;21149;-53
2021/04/29 07:58:28;;;;;;;17.23;14.30;;;;;;;6.90;73.03;96247.66;1726346;82;21165;-53
2021/04/29 08:00:57;;;;;;;;;;;;;;;7.00;72.88;96248.75;1737457;82;21134;-54
2021/04/29 08:03:25;;;;;;;20.30;15.20;;;;;;;7.16;72.88;96247.34;1734363;82;21354;-54
2021/04/29 08:05:52;;;;;;;19.85;14.58;;;;;;;7.33;72.26;96242.41;1733651;82;21549;-54
2021/04/29 08:08:20;;;;;;;17.60;14.83;;;;;;;7.45;71.76;96239.98;1749190;80;21128;-54
2021/04/29 08:10:48;;;;;;;19.00;12.93;;;;;;;7.55;71.74;96241.07;1741485;82;21121;-54
2021/04/29 08:13:16;;;;;;;20.57;14.05;;;;;;;7.72;70.80;96236.10;1685194;82;21149;-54
2021/04/29 08:15:45;;;;;;;20.68;13.48;;;;;;;7.72;70.46;96233.05;1733592;82;21061;-54
2021/04/29 08:18:13;;;;;;;16.97;13.80;;;;;;;7.80;70.68;96230.45;1697654;83;21078;-54
2021/04/29 08:20:42;;;;;;;19.23;14.70;;;;;;;7.98;70.13;96227.95;1699843;82;21114;-54
2021/04/29 08:23:10;;;;;;;17.27;14.28;;;;;;;8.10;69.61;96227.12;1721067;82;21100;-54
2021/04/29 08:25:37;;;;;;;18.50;14.73;;;;;;;8.21;69.32;96232.06;1732189;81;21584;-54
2021/04/29 08:28:05;;;;;;;20.88;15.60;;;;;;;8.27;68.59;96235.50;1744350;80;21393;-54
2021/04/29 08:30:32;;;;;;;20.00;16.57;;;;;;;8.26;68.81;96235.98;1738632;80;21529;-53
2021/04/29 08:33:01;;;;;;;32.17;16.45;;;;;;;8.28;68.52;96234.59;1735797;82;21158;-54
2021/04/29 08:35:29;;;;;;;;;;;;;;;8.33;68.63;96228.64;1742667;81;21153;-55
2021/04/29 08:37:57;;;;;;;24.45;15.88;;;;;;;8.35;68.73;96225.95;1723866;82;20284;-54
2021/04/29 08:40:27;;;;;;;24.27;15.80;;;;;;;8.38;68.57;96235.61;1681697;85;21533;-54
2021/04/29 08:42:55;;;;;;;20.20;15.28;;;;;;;8.41;68.66;96226.84;1692082;84;21565;-54
2021/04/29 08:45:23;;;;;;;24.63;15.28;;;;;;;8.55;68.75;96224.18;1694278;84;21510;-54
2021/04/29 08:47:53;;;;;;;;;;;;;;;8.79;68.26;96219.06;1729080;82;21554;-54
2021/04/29 08:50:22;;;;;;;21.95;13.85;;;;;;;9.06;67.81;96219.35;1723123;82;20219;-54
2021/04/29 08:52:50;;;;;;;;;;;;;;;9.24;67.05;96220.30;1732751;82;22131;-55
2021/04/29 08:55:25;;;;;;;18.20;13.55;;;;;;;9.35;66.88;96219.88;1721503;82;20785;-54
2021/04/29 08:57:56;;;;;;;17.15;13.05;;;;;;;9.52;66.56;96228.20;1728295;82;21082;-54
2021/04/29 09:00:24;;;;;;;18.00;13.75;;;;;;;9.64;65.73;96213.53;1736158;82;22459;-54
2021/04/29 09:02:55;;;;;;;15.73;13.23;;;;;;;9.72;65.58;96218.98;1751223;80;21062;-54
2021/04/29 09:05:34;;;;;;;18.85;13.98;;;;;;;9.90;64.92;96216.80;1709757;82;21799;-54
2021/04/29 09:08:06;;;;;;;18.37;13.05;;;;;;;9.95;65.01;96223.31;1724823;82;21094;-55
2021/04/29 09:10:41;;;;;;;15.48;12.37;;;;;;;10.13;64.83;96223.72;1738031;82;21079;-55
2021/04/29 09:13:18;;;;;;;17.10;12.47;;;;;;;10.37;64.46;96221.55;1726693;82;21605;-54
2021/04/29 09:15:47;;;;;;;15.90;11.95;;;;;;;10.66;64.03;96224.52;1745171;80;21065;-53
2021/04/29 09:18:21;;;;;;;18.52;13.28;;;;;;;10.92;62.65;96230.78;1761472;80;21368;-53
2021/04/29 09:20:56;;;;;;;16.95;13.00;;;;;;;10.99;62.40;96229.83;1686739;83;21134;-54
2021/04/29 09:23:30;;;;;;;17.80;12.63;;;;;;;11.04;62.32;96222.02;1692777;84;21141;-54
2021/04/29 09:26:07;;;;;;;16.97;13.00;;;;;;;11.29;62.04;96229.17;1727769;82;21581;-54
2021/04/29 09:28:48;;;;;;;18.55;12.58;;;;;;;11.58;61.33;96223.44;1721603;81;21525;-54
2021/04/29 09:31:20;;;;;;;16.50;13.05;;;;;;;11.80;60.67;96221.22;1691428;84;22352;-53
2021/04/29 09:33:56;;;;;;;18.02;13.58;;;;;;;12.02;60.21;96227.29;1746421;81;21699;-52
2021/04/29 09:36:40;;;;;;;18.17;12.80;;;;;;;12.02;59.33;96223.39;1735944;81;21094;-53
2021/04/29 09:39:16;;;;;;;16.82;12.93;;;;;;;11.98;59.77;96229.32;1736810;81;21140;-55
2021/04/29 09:41:47;;;;;;;17.12;13.20;;;;;;;12.04;59.66;96221.48;1744423;81;21074;-54
2021/04/29 09:44:20;;;;;;;15.72;13.15;;;;;;;12.11;59.56;96219.55;1739354;81;22432;-52
2021/04/29 09:47:03;;;;;;;17.07;13.32;;;;;;;12.19;59.23;96218.09;1742779;81;21201;-53
2021/04/29 09:49:39;;;;;;;18.17;13.68;;;;;;;12.21;58.80;96215.72;1727157;81;21066;-53
2021/04/29 09:52:23;;;;;;;21.42;13.38;;;;;;;12.18;58.76;96215.97;1734173;81;21229;-53
2021/04/29 09:54:53;;;;;;;21.00;17.10;;;;;;;12.14;59.05;96218.01;1740840;81;21258;-53
2021/04/29 09:57:28;;;;;;;19.77;15.20;;;;;;;12.09;59.63;96218.05;1736612;82;21664;-53
2021/04/29 10:00:00;;;;;;;19.73;14.70;;;;;;;12.07;59.84;96216.88;1726288;81;21086;-53
2021/04/29 10:02:30;;;;;;;19.65;14.53;;;;;;;12.08;59.96;96211.19;1734057;82;21604;-54
2021/04/29 10:04:57;;;;;;;18.75;13.85;;;;;;;12.12;60.04;96206.91;1736264;82;21188;-53
2021/04/29 10:07:25;;;;;;;22.93;14.73;;;;;;;12.25;60.09;96213.23;1734058;81;21135;-52
2021/04/29 10:09:53;;;;;;;19.37;15.13;;;;;;;12.42;60.01;96207.09;1699302;83;22349;-53
2021/04/29 10:12:23;;;;;;;18.55;15.43;;;;;;;12.65;59.62;96205.14;1728030;82;21580;-55
2021/04/29 10:14:52;;;;;;;17.27;14.13;;;;;;;12.89;59.16;96196.98;1729242;81;21612;-54
2021/04/29 10:17:24;;;;;;;18.07;14.25;;;;;;;13.36;58.16;96197.77;1738899;82;21133;-55
2021/04/29 10:19:56;;;;;;;18.70;13.68;;;;;;;13.36;58.16;96197.77;1694869;84;21640;-54
2021/04/29 10:22:24;;;;;;;25.37;19.05;;;;;;;13.59;57.84;96198.33;1736609;82;21382;-54
2021/04/29 10:24:52;;;;;;;24.23;14.47;;;;;;;13.76;57.30;96202.03;1726779;82;21074;-53
2021/04/29 10:27:25;;;;;;;21.15;14.75;;;;;;;13.90;56.48;96199.50;1738504;82;21149;-54
2021/04/29 10:30:08;;;;;;;20.95;15.93;;;;;;;14.03;56.42;96200.04;1739540;82;21114;-54
2021/04/29 10:32:37;;;;;;;26.45;18.37;;;;;;;14.15;56.11;96187.16;1731993;82;21050;-54
2021/04/29 10:35:19;;;;;;;22.35;16.85;;;;;;;14.33;55.54;96183.35;1695407;84;21661;-54
2021/04/29 10:37:58;;;;;;;18.92;14.38;;;;;;;14.45;55.44;96179.27;1734085;82;21177;-52
2021/04/29 10:40:37;;;;;;;17.35;13.45;;;;;;;14.65;55.10;96178.74;1722092;81;21180;-56
2021/04/29 10:43:06;;;;;;;18.20;12.68;;;;;;;14.94;54.36;96161.64;1728742;81;21208;-55
2021/04/29 10:45:34;;;;;;;;;;;;;;;15.32;53.77;96155.83;1744637;82;21529;-54
2021/04/29 10:48:07;;;;;;;15.70;11.90;;;;;;;15.71;53.31;96158.65;1738877;82;21203;-53
2021/04/29 10:50:48;;;;;;;20.08;13.05;;;;;;;16.03;51.86;96154.66;1737397;82;21034;-54
2021/04/29 10:53:28;;;;;;;18.70;12.18;;;;;;;16.34;51.83;96141.94;1697238;84;21098;-53
2021/04/29 10:56:15;;;;;;;12.75;11.15;;;;;;;16.74;50.16;96143.94;1706927;83;21537;-53
2021/04/29 10:58:44;;;;;;;14.18;11.90;;;;;;;16.86;48.74;96142.38;1733202;82;21526;-53
2021/04/29 11:01:16;;;;;;;11.50;10.10;;;;;;;17.02;49.08;96134.57;1732989;82;22148;-53
2021/04/29 11:03:50;;;;;;;18.07;10.60;;;;;;;17.33;48.13;96138.39;1729671;82;21062;-55
2021/04/29 11:06:30;;;;;;;14.65;10.70;;;;;;;17.45;48.30;96128.75;1733373;82;21140;-54
2021/04/29 11:08:58;;;;;;;15.18;10.88;;;;;;;17.60;47.86;96120.23;1731382;82;21560;-54
2021/04/29 11:11:33;;;;;;;15.43;10.82;;;;;;;17.77;47.57;96114.48;1738882;82;21090;-54
2021/04/29 11:14:13;;;;;;;15.72;10.23;;;;;;;17.85;47.13;96107.42;1732974;81;21362;-55
2021/04/29 11:16:48;;;;;;;15.58;9.93;;;;;;;17.92;47.14;96102.86;1725114;81;21180;-54
2021/04/29 11:19:55;;;;;;;12.73;9.55;;;;;;;18.07;47.08;96105.13;1633981;84;21192;-53
2021/04/29 11:22:34;;;;;;;12.55;9.43;;;;;;;18.34;47.25;96096.55;1742539;81;21057;-54
2021/04/29 11:25:02;;;;;;;14.90;11.60;;;;;;;18.74;46.72;96091.61;1733259;81;21065;-54
2021/04/29 11:27:38;;;;;;;17.52;14.18;;;;;;;19.05;45.79;96086.89;1705351;83;21458;-54
2021/04/29 11:30:13;;;;;;;14.20;11.00;;;;;;;19.28;45.75;96086.09;1700322;83;21232;-55
2021/04/29 11:32:54;;;;;;;17.25;11.83;;;;;;;19.43;45.14;96082.20;1687281;83;21637;-54
2021/04/29 11:35:33;;;;;;;13.22;10.05;;;;;;;19.47;44.93;96080.38;1731953;82;21101;-54
2021/04/29 11:38:03;;;;;;;12.43;10.50;;;;;;;19.52;44.83;96073.75;1734626;82;21061;-53
2021/04/29 11:40:33;;;;;;;10.48;9.10;;;;;;;19.56;44.76;96074.53;1715494;82;21197;-55
2021/04/29 11:43:03;;;;;;;14.90;10.88;;;;;;;19.66;44.46;96078.23;1697235;84;21144;-54